createdAt,value
2022-12-11T00:01:49.133Z,15.08
2022-12-11T00:06:52.520Z,15.09
2022-12-11T00:11:55.141Z,15.06
2022-12-11T00:16:58.054Z,14.91
2022-12-11T00:22:00.764Z,14.90
2022-12-11T00:27:03.478Z,15.03
2022-12-11T00:32:06.471Z,15.11
2022-12-11T00:37:09.153Z,15.21
2022-12-11T00:42:11.934Z,15.26
2022-12-11T00:47:14.044Z,15.12
2022-12-11T00:52:18.243Z,15.06
2022-12-11T00:57:20.854Z,15.15
2022-12-11T01:02:23.628Z,15.05
2022-12-11T01:07:28.064Z,14.89
2022-12-11T01:12:30.259Z,14.79
2022-12-11T01:17:32.571Z,14.78
2022-12-11T01:22:35.148Z,14.79
2022-12-11T01:27:38.984Z,14.89
2022-12-11T01:32:41.513Z,15.03
2022-12-11T01:37:43.750Z,15.15
2022-12-11T01:42:46.199Z,15.24
2022-12-11T01:47:50.653Z,15.19
2022-12-11T01:52:53.259Z,15.51
2022-12-11T01:57:56.065Z,15.80
2022-12-11T02:02:58.256Z,15.70
2022-12-11T02:08:03.613Z,15.81
2022-12-11T02:13:16.003Z,15.75
2022-12-11T02:18:47.321Z,15.80
2022-12-11T02:24:16.960Z,15.88
2022-12-11T02:29:55.728Z,15.96
2022-12-11T02:35:08.714Z,15.99
2022-12-11T02:40:14.774Z,16.06
2022-12-11T02:45:19.074Z,16.02
2022-12-11T02:50:24.061Z,16.11
2022-12-11T02:55:29.481Z,16.08
2022-12-11T03:00:32.947Z,16.11
2022-12-11T03:05:35.988Z,16.00
2022-12-11T03:10:38.670Z,16.02
2022-12-11T03:15:47.204Z,16.05
2022-12-11T03:21:14.308Z,16.04
2022-12-11T03:26:19.790Z,16.12
2022-12-11T03:31:39.659Z,16.00
2022-12-11T03:36:44.733Z,16.00
2022-12-11T03:41:48.949Z,15.86
2022-12-11T03:46:53.184Z,15.96
2022-12-11T03:51:58.481Z,16.05
2022-12-11T03:57:04.755Z,16.09
2022-12-11T04:02:11.287Z,16.06
2022-12-11T04:07:13.892Z,16.08
2022-12-11T04:12:16.497Z,16.46
2022-12-11T04:17:38.668Z,16.42
2022-12-11T04:23:02.526Z,16.16
2022-12-11T04:28:05.551Z,16.26
2022-12-11T04:33:08.249Z,15.84
2022-12-11T04:38:10.819Z,16.22
2022-12-11T04:43:13.495Z,16.27
2022-12-11T04:48:15.642Z,16.24
2022-12-11T04:53:18.372Z,16.37
2022-12-11T04:58:21.009Z,16.27
2022-12-11T05:03:23.939Z,16.32
2022-12-11T05:08:26.484Z,16.39
2022-12-11T05:13:29.907Z,16.56
2022-12-11T05:18:32.638Z,16.29
2022-12-11T05:23:35.644Z,16.22
2022-12-11T05:28:39.814Z,16.25
2022-12-11T05:33:42.937Z,16.33
2022-12-11T05:38:46.224Z,16.27
2022-12-11T05:43:49.078Z,15.79
2022-12-11T05:48:55.396Z,15.76
2022-12-11T05:53:58.474Z,15.84
2022-12-11T05:59:03.293Z,15.86
2022-12-11T06:04:07.018Z,16.01
2022-12-11T06:09:13.505Z,15.89
2022-12-11T06:14:15.695Z,15.74
2022-12-11T06:19:18.728Z,15.91
2022-12-11T06:24:21.286Z,16.06
2022-12-11T06:29:23.978Z,16.35
2022-12-11T06:34:26.071Z,16.40
2022-12-11T06:39:28.602Z,16.39
2022-12-11T06:44:30.713Z,16.43
2022-12-11T06:49:33.507Z,16.56
2022-12-11T06:54:36.121Z,16.80
2022-12-11T06:59:39.200Z,16.96
2022-12-11T07:04:42.694Z,16.51
2022-12-11T07:09:45.370Z,16.90
2022-12-11T07:14:47.945Z,17.19
2022-12-11T07:19:50.594Z,17.55
2022-12-11T07:24:52.872Z,18.07
2022-12-11T07:29:56.094Z,18.29
2022-12-11T07:34:58.603Z,19.66
2022-12-11T16:58:55.493Z,6.24
2022-12-11T17:03:58.663Z,6.22
2022-12-11T17:09:01.089Z,6.06
2022-12-11T17:14:03.297Z,5.88
2022-12-11T17:19:07.786Z,5.89
2022-12-11T17:24:10.797Z,6.13
2022-12-11T17:29:13.699Z,6.14
2022-12-11T17:34:16.220Z,5.94
2022-12-11T17:39:18.694Z,5.83
2022-12-11T17:44:20.931Z,5.66
2022-12-11T17:49:23.421Z,5.70
2022-12-11T17:54:25.642Z,5.30
2022-12-11T17:59:28.588Z,5.42
2022-12-11T18:04:31.303Z,5.37
2022-12-11T18:09:33.961Z,5.51
2022-12-11T18:14:36.779Z,5.58
2022-12-11T18:19:44.412Z,5.60
2022-12-11T18:24:48.279Z,5.47
2022-12-11T18:29:51.255Z,5.59
2022-12-11T18:34:53.571Z,5.67
2022-12-11T18:39:55.954Z,5.69
2022-12-11T18:44:58.186Z,5.55
2022-12-11T18:50:07.133Z,5.74
2022-12-11T18:55:10.715Z,5.85
2022-12-11T19:00:14.039Z,5.81
2022-12-11T19:05:16.246Z,5.65
2022-12-11T19:10:18.504Z,5.79
2022-12-11T19:15:23.777Z,5.80
2022-12-11T19:20:48.104Z,5.88
2022-12-11T19:25:48.739Z,5.90
2022-12-11T19:30:51.013Z,5.96
2022-12-11T19:36:10.074Z,6.00
2022-12-11T19:41:23.736Z,5.71
2022-12-11T19:46:27.159Z,5.61
2022-12-11T19:51:36.768Z,5.59
2022-12-11T19:56:39.103Z,5.60
2022-12-11T20:01:42.061Z,5.75
2022-12-11T20:06:46.295Z,5.77
2022-12-11T20:11:48.536Z,5.61
2022-12-11T20:17:10.501Z,5.66
2022-12-11T20:22:13.846Z,5.84
2022-12-11T20:27:16.056Z,5.58
2022-12-11T20:32:18.293Z,5.62
2022-12-11T20:37:20.441Z,5.66
2022-12-11T20:42:23.015Z,5.64
2022-12-11T20:47:25.423Z,5.71
2022-12-11T20:52:28.395Z,5.70
2022-12-11T20:57:31.280Z,5.63
2022-12-11T21:02:34.333Z,5.60
2022-12-11T21:07:36.557Z,5.58
2022-12-11T21:12:39.509Z,5.45
2022-12-11T21:17:41.934Z,5.57
2022-12-11T21:22:44.105Z,5.66
2022-12-11T21:27:46.229Z,5.48
2022-12-11T21:32:48.428Z,5.53
2022-12-11T21:37:50.603Z,5.71
2022-12-11T21:42:52.643Z,5.80
2022-12-11T21:47:54.726Z,5.62
2022-12-11T21:52:56.939Z,5.56
2022-12-11T21:57:59.234Z,5.54
2022-12-11T22:03:01.497Z,5.61
2022-12-11T22:08:03.713Z,5.23
2022-12-11T22:13:05.875Z,5.41
2022-12-11T22:18:08.225Z,5.25
2022-12-11T22:23:10.331Z,5.12
2022-12-11T22:28:12.371Z,5.13
2022-12-11T22:33:14.443Z,4.80
2022-12-11T22:38:16.687Z,4.89
2022-12-11T22:43:19.379Z,4.85
2022-12-11T22:48:21.626Z,4.52
2022-12-11T22:53:23.949Z,4.62
2022-12-11T22:58:26.363Z,4.51
2022-12-11T23:03:29.071Z,4.48
2022-12-11T23:08:32.015Z,4.19
2022-12-11T23:13:34.283Z,4.21
2022-12-11T23:18:36.712Z,4.29
2022-12-11T23:23:39.525Z,4.21
2022-12-11T23:28:42.371Z,4.24
2022-12-11T23:33:45.347Z,4.19
2022-12-11T23:38:54.097Z,4.20
2022-12-11T23:43:56.796Z,4.05
2022-12-11T23:48:59.014Z,3.81
2022-12-11T23:54:01.147Z,3.81
2022-12-11T23:59:03.759Z,3.61
